createdAt,value
2019-03-02T00:01:28.755Z,25.70
2019-03-02T00:02:56.751Z,26.93
2019-03-02T00:04:21.614Z,25.23
2019-03-02T00:05:47.254Z,25.40
2019-03-02T00:07:12.792Z,26.03
2019-03-02T00:08:38.559Z,25.73
2019-03-02T00:10:06.539Z,26.10
2019-03-02T00:11:31.455Z,25.43
2019-03-02T00:12:57.011Z,25.08
2019-03-02T00:14:22.525Z,25.60
2019-03-02T00:15:48.063Z,24.92
2019-03-02T00:17:15.590Z,24.47
2019-03-02T00:18:40.725Z,26.30
2019-03-02T00:20:09.507Z,26.60
2019-03-02T00:21:35.147Z,24.83
2019-03-02T00:23:00.683Z,25.50
2019-03-02T00:24:26.247Z,25.13
2019-03-02T00:25:51.894Z,25.60
2019-03-02T00:27:17.862Z,26.03
2019-03-02T00:28:44.578Z,26.77
2019-03-02T00:30:10.725Z,26.00
2019-03-02T00:31:36.253Z,26.33
2019-03-02T00:33:01.791Z,26.40
2019-03-02T00:34:28.706Z,27.17
2019-03-02T00:35:54.729Z,25.70
2019-03-02T00:37:20.254Z,24.97
2019-03-02T00:38:45.753Z,25.90
2019-03-02T00:40:11.506Z,25.80
2019-03-02T00:41:38.726Z,25.67
2019-03-02T00:43:04.542Z,28.13
2019-03-02T00:44:30.220Z,25.17
2019-03-02T00:45:57.314Z,26.03
2019-03-02T00:47:23.166Z,25.07
2019-03-02T00:48:48.662Z,23.00
2019-03-02T00:50:14.511Z,22.93
2019-03-02T00:51:42.678Z,23.80
2019-03-02T00:53:07.162Z,24.37
2019-03-02T00:54:32.662Z,23.93
2019-03-02T00:55:58.221Z,23.80
2019-03-02T00:57:23.849Z,24.50
2019-03-02T00:58:49.356Z,23.97
2019-03-02T01:00:16.276Z,23.80
2019-03-02T01:01:42.044Z,23.93
2019-03-02T01:03:07.626Z,25.40
2019-03-02T01:04:33.131Z,23.07
2019-03-02T01:05:58.736Z,24.50
2019-03-02T01:07:24.567Z,24.23
2019-03-02T01:08:50.163Z,23.03
2019-03-02T01:10:19.063Z,23.10
2019-03-02T01:11:43.106Z,23.20
2019-03-02T01:13:08.738Z,24.83
2019-03-02T01:14:34.322Z,23.00
2019-03-02T01:15:59.891Z,23.63
2019-03-02T01:17:26.983Z,22.57
2019-03-02T01:18:52.600Z,23.17
2019-03-02T01:20:18.448Z,23.47
2019-03-02T01:21:43.968Z,23.57
2019-03-02T01:23:09.468Z,20.90
2019-03-02T01:24:35.586Z,22.00
2019-03-02T01:26:02.228Z,21.00
2019-03-02T01:27:27.760Z,21.13
2019-03-02T01:28:53.231Z,20.87
2019-03-02T01:30:19.445Z,20.13
2019-03-02T01:31:44.980Z,20.50
2019-03-02T01:33:10.723Z,19.93
2019-03-02T01:34:38.726Z,21.70
2019-03-02T01:36:03.498Z,19.40
2019-03-02T01:37:29.102Z,19.70
2019-03-02T01:38:54.947Z,18.70
2019-03-02T01:40:20.517Z,21.27
2019-03-02T01:41:46.097Z,19.33
2019-03-02T01:43:11.616Z,18.57
2019-03-02T01:44:37.138Z,18.87
2019-03-02T01:46:03.314Z,17.43
2019-03-02T01:47:30.122Z,20.55
2019-03-02T01:48:58.701Z,18.87
2019-03-02T01:50:22.891Z,19.17
2019-03-02T01:51:48.532Z,18.17
2019-03-02T01:53:14.032Z,19.90
2019-03-02T01:54:39.565Z,19.60
2019-03-02T01:56:06.127Z,19.43
2019-03-02T01:57:32.504Z,19.83
2019-03-02T01:59:00.605Z,21.23
2019-03-02T02:00:28.791Z,19.60
2019-03-02T02:01:56.585Z,19.45
2019-03-02T02:03:21.538Z,20.23
2019-03-02T02:04:47.075Z,19.53
2019-03-02T02:06:12.683Z,17.93
2019-03-02T02:07:38.173Z,19.60
2019-03-02T02:09:05.625Z,18.17
2019-03-02T02:10:32.236Z,18.73
2019-03-02T02:11:57.887Z,20.33
2019-03-02T02:13:23.513Z,17.43
2019-03-02T02:14:50.937Z,17.60
2019-03-02T02:16:16.237Z,18.97
2019-03-02T02:17:41.791Z,17.90
2019-03-02T02:19:07.431Z,19.12
2019-03-02T02:20:32.952Z,17.50
2019-03-02T02:21:58.795Z,17.57
2019-03-02T02:23:25.814Z,14.78
2019-03-02T02:24:51.455Z,17.90
2019-03-02T02:26:16.973Z,17.43
2019-03-02T02:27:42.608Z,17.45
2019-03-02T02:29:09.527Z,18.52
2019-03-02T02:30:35.356Z,18.63
2019-03-02T02:32:00.862Z,20.30
2019-03-02T02:33:26.455Z,17.75
2019-03-02T02:34:56.387Z,18.30
2019-03-02T02:36:20.411Z,19.32
2019-03-02T02:37:47.395Z,17.85
2019-03-02T02:39:16.423Z,19.83
2019-03-02T02:40:41.912Z,16.80
2019-03-02T02:42:07.424Z,18.40
2019-03-02T02:43:33.078Z,18.23
2019-03-02T02:44:58.664Z,17.07
2019-03-02T02:46:27.510Z,16.97
2019-03-02T02:47:53.948Z,17.93
2019-03-02T02:49:18.514Z,16.80
2019-03-02T02:50:44.146Z,17.23
2019-03-02T02:52:09.651Z,17.27
2019-03-02T02:53:35.177Z,15.48
2019-03-02T02:55:02.305Z,15.50
2019-03-02T02:56:27.958Z,16.53
2019-03-02T02:57:53.734Z,14.80
2019-03-02T02:59:19.304Z,17.13
2019-03-02T03:00:44.925Z,14.90
2019-03-02T03:02:12.008Z,15.63
2019-03-02T03:03:37.887Z,13.75
2019-03-02T03:05:03.553Z,14.68
2019-03-02T03:06:32.682Z,13.58
2019-03-02T03:07:56.220Z,14.03
2019-03-02T03:09:45.259Z,13.32
2019-03-02T03:11:11.232Z,13.93
2019-03-02T03:12:36.761Z,13.40
2019-03-02T03:14:02.288Z,13.35
2019-03-02T03:15:36.004Z,14.40
2019-03-02T03:16:57.407Z,12.30
2019-03-02T03:18:22.935Z,12.67
2019-03-02T03:19:48.479Z,14.20
2019-03-02T03:21:14.091Z,13.22
2019-03-02T03:22:40.874Z,13.07
2019-03-02T03:24:06.984Z,13.30
2019-03-02T03:25:32.582Z,13.78
2019-03-02T03:26:58.144Z,13.85
2019-03-02T03:28:26.119Z,13.08
2019-03-02T03:29:51.336Z,14.20
2019-03-02T03:31:23.348Z,15.05
2019-03-02T03:32:54.902Z,14.93
2019-03-02T03:34:11.338Z,14.93
2019-03-02T03:35:36.889Z,15.10
2019-03-02T03:37:02.460Z,13.98
2019-03-02T03:38:29.248Z,15.48
2019-03-02T03:39:55.371Z,15.00
2019-03-02T03:41:20.927Z,14.98
2019-03-02T03:42:46.449Z,14.97
2019-03-02T03:44:11.982Z,17.42
2019-03-02T03:45:42.104Z,15.75
2019-03-02T03:47:04.854Z,16.73
2019-03-02T03:48:30.324Z,16.70
2019-03-02T03:49:55.955Z,19.82
2019-03-02T03:51:26.136Z,20.35
2019-03-02T03:52:50.277Z,21.33
2019-03-02T03:54:15.947Z,19.70
2019-03-02T03:55:41.486Z,20.12
2019-03-02T03:57:07.117Z,19.75
2019-03-02T03:58:35.073Z,21.20
2019-03-02T04:00:00.679Z,20.77
2019-03-02T04:01:26.504Z,20.73
2019-03-02T04:02:52.069Z,20.50
2019-03-02T04:04:18.073Z,22.27
2019-03-02T04:05:47.259Z,20.88
2019-03-02T04:07:10.839Z,18.75
2019-03-02T04:08:36.384Z,21.02
2019-03-02T04:10:01.856Z,20.90
2019-03-02T04:11:27.383Z,18.75
2019-03-02T04:12:52.922Z,20.65
2019-03-02T04:14:19.062Z,19.50
2019-03-02T04:15:45.775Z,22.00
2019-03-02T04:17:11.302Z,20.45
2019-03-02T04:19:04.757Z,21.35
2019-03-02T04:20:36.496Z,19.17
2019-03-02T04:22:06.559Z,20.10
2019-03-02T04:23:29.708Z,18.35
2019-03-02T04:24:55.215Z,19.67
2019-03-02T04:26:20.744Z,17.65
2019-03-02T04:27:53.156Z,17.65
2019-03-02T04:29:13.482Z,17.42
2019-03-02T04:30:39.148Z,15.25
2019-03-02T04:32:04.672Z,14.60
2019-03-02T04:33:30.157Z,14.33
2019-03-02T04:34:57.724Z,15.65
2019-03-02T04:36:23.082Z,15.70
2019-03-02T04:37:48.557Z,15.10
2019-03-02T04:39:15.044Z,15.60
2019-03-02T04:40:40.686Z,14.23
2019-03-02T04:42:06.282Z,12.85
2019-03-02T04:43:31.812Z,15.32
2019-03-02T04:44:57.289Z,14.68
2019-03-02T04:46:22.859Z,17.70
2019-03-02T04:47:48.347Z,16.17
2019-03-02T04:49:14.658Z,16.70
2019-03-02T04:50:40.953Z,14.98
2019-03-02T04:52:06.621Z,15.60
2019-03-02T04:53:32.146Z,17.47
2019-03-02T04:54:57.665Z,17.60
2019-03-02T04:56:24.189Z,19.67
2019-03-02T04:57:50.389Z,19.30
2019-03-02T04:59:18.702Z,18.92
2019-03-02T05:00:43.143Z,16.93
2019-03-02T05:02:08.872Z,18.77
2019-03-02T05:03:34.347Z,18.55
2019-03-02T05:04:59.862Z,17.95
2019-03-02T05:06:25.365Z,18.48
2019-03-02T05:07:50.853Z,20.97
2019-03-02T05:09:17.268Z,21.20
2019-03-02T05:10:43.442Z,19.23
2019-03-02T05:12:11.642Z,18.40
2019-03-02T05:13:36.090Z,20.97
2019-03-02T05:15:01.586Z,20.72
2019-03-02T05:16:28.857Z,19.82
2019-03-02T05:17:54.328Z,17.60
2019-03-02T05:19:19.915Z,16.27
2019-03-02T05:20:45.500Z,16.62
2019-03-02T05:22:11.043Z,17.37
2019-03-02T05:23:36.544Z,16.90
2019-03-02T05:25:02.055Z,16.02
2019-03-02T05:26:27.602Z,16.80
2019-03-02T05:27:53.127Z,15.55
2019-03-02T05:29:18.637Z,14.07
2019-03-02T05:30:44.159Z,15.30
2019-03-02T05:32:12.551Z,16.00
2019-03-02T05:33:37.075Z,16.02
2019-03-02T05:35:02.566Z,17.55
2019-03-02T05:36:28.192Z,16.67
2019-03-02T05:37:54.054Z,15.75
2019-03-02T05:39:19.653Z,14.47
2019-03-02T05:40:45.129Z,15.35
2019-03-02T05:42:13.606Z,14.58
2019-03-02T05:43:37.815Z,15.05
2019-03-02T05:45:03.342Z,16.17
2019-03-02T05:46:28.835Z,17.30
2019-03-02T05:47:54.374Z,16.60
2019-03-02T05:49:19.884Z,17.20
2019-03-02T05:50:45.390Z,16.67
2019-03-02T05:52:10.923Z,15.18
2019-03-02T05:53:36.432Z,16.00
2019-03-02T05:55:01.964Z,16.60
2019-03-02T05:56:29.310Z,16.80
2019-03-02T05:57:54.658Z,16.27
2019-03-02T05:59:22.873Z,15.38
2019-03-02T06:00:51.237Z,17.12
2019-03-02T06:02:17.316Z,16.27
2019-03-02T06:03:46.067Z,15.13
2019-03-02T06:05:11.090Z,15.18
2019-03-02T06:06:36.600Z,15.68
2019-03-02T06:08:02.163Z,14.20
2019-03-02T06:09:27.674Z,15.65
2019-03-02T06:10:53.206Z,14.55
2019-03-02T06:12:18.693Z,14.85
2019-03-02T06:13:44.254Z,14.00
2019-03-02T06:15:10.642Z,14.95
2019-03-02T06:16:36.162Z,14.47
2019-03-02T06:18:04.450Z,15.13
2019-03-02T06:19:28.935Z,15.83
2019-03-02T06:20:54.439Z,17.45
2019-03-02T06:22:21.116Z,19.23
2019-03-02T06:23:47.119Z,19.85
2019-03-02T06:25:19.324Z,18.32
2019-03-02T06:26:40.002Z,21.05
2019-03-02T06:28:05.562Z,20.92
2019-03-02T06:29:32.810Z,19.50
2019-03-02T06:30:58.193Z,20.10
2019-03-02T06:32:25.898Z,20.70
2019-03-02T06:33:50.887Z,21.52
2019-03-02T06:35:16.411Z,20.02
2019-03-02T06:36:44.686Z,20.05
2019-03-02T06:38:18.214Z,18.87
2019-03-02T06:39:44.419Z,19.27
2019-03-02T06:41:16.435Z,19.35
2019-03-02T06:42:41.919Z,18.80
2019-03-02T06:44:07.270Z,18.27
2019-03-02T06:45:32.930Z,18.85
2019-03-02T06:46:59.183Z,18.77
2019-03-02T06:48:27.230Z,18.67
2019-03-02T06:49:53.171Z,18.23
2019-03-02T06:51:20.059Z,19.23
2019-03-02T06:52:45.836Z,15.68
2019-03-02T06:54:12.971Z,16.62
2019-03-02T06:55:38.619Z,16.73
2019-03-02T06:57:04.192Z,16.73
2019-03-02T06:58:29.807Z,15.72
2019-03-02T06:59:55.333Z,16.77
2019-03-02T07:01:24.674Z,17.07
2019-03-02T07:02:48.174Z,14.87
2019-03-02T07:04:13.732Z,17.67
2019-03-02T07:05:39.368Z,16.45
2019-03-02T07:07:06.196Z,16.37
2019-03-02T07:08:32.758Z,15.48
2019-03-02T07:09:58.925Z,17.43
2019-03-02T07:11:24.480Z,14.67
2019-03-02T07:12:50.175Z,14.63
2019-03-02T07:14:16.227Z,14.47
2019-03-02T07:15:43.689Z,13.72
2019-03-02T07:17:09.074Z,13.22
2019-03-02T07:18:42.528Z,14.95
2019-03-02T07:20:17.342Z,13.88
2019-03-02T07:21:42.978Z,13.83
2019-03-02T07:23:08.456Z,14.25
2019-03-02T07:24:33.982Z,14.23
2019-03-02T07:25:59.548Z,14.45
2019-03-02T07:27:26.388Z,14.47
2019-03-02T07:28:52.241Z,13.25
2019-03-02T07:30:17.902Z,14.30
2019-03-02T07:31:43.461Z,12.98
2019-03-02T07:33:08.954Z,14.55
2019-03-02T07:34:34.481Z,13.88
2019-03-02T07:36:00.073Z,14.90
2019-03-02T07:37:25.725Z,14.70
2019-03-02T07:38:53.006Z,13.30
2019-03-02T07:40:18.499Z,14.43
2019-03-02T07:41:44.043Z,13.10
2019-03-02T07:43:09.897Z,14.33
2019-03-02T07:44:36.162Z,15.20
2019-03-02T07:46:01.748Z,16.12
2019-03-02T07:47:27.282Z,15.32
2019-03-02T07:48:52.802Z,14.80
2019-03-02T07:50:21.871Z,13.72
2019-03-02T07:51:45.756Z,14.83
2019-03-02T07:53:11.349Z,12.53
2019-03-02T07:54:38.766Z,13.95
2019-03-02T07:56:04.189Z,14.33
2019-03-02T07:57:29.795Z,15.27
2019-03-02T07:58:55.822Z,13.43
2019-03-02T08:00:21.629Z,14.68
2019-03-02T08:01:48.973Z,14.73
2019-03-02T08:03:14.586Z,15.85
2019-03-02T08:04:40.058Z,14.18
2019-03-02T08:06:05.718Z,15.93
2019-03-02T08:07:34.040Z,15.40
2019-03-02T08:08:58.378Z,16.40
2019-03-02T08:10:24.094Z,15.45
2019-03-02T08:11:49.913Z,15.58
2019-03-02T08:13:18.274Z,15.63
2019-03-02T08:14:44.462Z,14.33
2019-03-02T08:16:10.965Z,16.07
2019-03-02T08:17:36.438Z,15.23
2019-03-02T08:19:03.962Z,14.63
2019-03-02T08:20:29.251Z,15.53
2019-03-02T08:21:54.860Z,14.33
2019-03-02T08:23:20.359Z,15.20
2019-03-02T08:24:45.930Z,14.73
2019-03-02T08:26:11.489Z,16.57
2019-03-02T08:27:37.042Z,16.47
2019-03-02T08:29:05.352Z,16.67
2019-03-02T08:30:33.410Z,16.13
2019-03-02T08:31:58.146Z,14.93
2019-03-02T08:33:23.626Z,15.67
2019-03-02T08:34:49.126Z,14.97
2019-03-02T08:36:17.013Z,14.93
2019-03-02T08:37:41.986Z,13.93
2019-03-02T08:39:10.764Z,14.40
2019-03-02T08:40:35.347Z,14.00
2019-03-02T08:42:00.926Z,13.93
2019-03-02T08:43:26.466Z,14.53
2019-03-02T08:44:54.025Z,14.67
2019-03-02T08:46:19.088Z,14.27
2019-03-02T08:47:44.782Z,13.53
2019-03-02T08:49:10.286Z,13.93
2019-03-02T08:50:35.888Z,13.80
2019-03-02T08:52:01.514Z,14.70
2019-03-02T08:53:26.998Z,15.13
2019-03-02T08:54:53.635Z,14.00
2019-03-02T08:56:19.604Z,13.27
2019-03-02T08:57:45.246Z,14.20
2019-03-02T08:59:10.742Z,13.67
2019-03-02T09:00:39.012Z,13.00
2019-03-02T09:02:03.570Z,13.73
2019-03-02T09:03:30.336Z,13.40
2019-03-02T09:04:56.055Z,14.47
2019-03-02T09:06:21.570Z,12.80
2019-03-02T09:07:47.389Z,13.10
2019-03-02T09:09:12.917Z,14.70
2019-03-02T09:10:38.612Z,15.57
2019-03-02T09:12:04.227Z,14.53
2019-03-02T09:13:30.934Z,14.60
2019-03-02T09:14:56.999Z,16.33
2019-03-02T09:16:22.994Z,16.37
2019-03-02T09:17:50.082Z,17.03
2019-03-02T09:19:16.804Z,16.00
2019-03-02T09:20:43.043Z,15.33
2019-03-02T09:22:08.542Z,15.00
2019-03-02T09:23:36.144Z,15.77
2019-03-02T09:25:01.466Z,14.90
2019-03-02T09:26:26.929Z,14.03
2019-03-02T09:27:52.667Z,15.93
2019-03-02T09:29:18.167Z,15.30
2019-03-02T09:30:43.658Z,14.90
2019-03-02T09:32:10.969Z,16.80
2019-03-02T09:33:36.286Z,16.30
2019-03-02T09:35:01.937Z,16.70
2019-03-02T09:36:27.797Z,15.90
2019-03-02T09:37:54.801Z,16.57
2019-03-02T09:39:20.333Z,15.90
2019-03-02T09:40:45.979Z,16.43
2019-03-02T09:42:13.454Z,16.00
2019-03-02T09:43:39.190Z,15.90
2019-03-02T09:45:07.737Z,17.20
2019-03-02T09:46:32.713Z,17.17
2019-03-02T09:47:58.233Z,18.70
2019-03-02T09:49:23.793Z,18.73
2019-03-02T09:50:49.401Z,17.20
2019-03-02T09:52:15.007Z,17.53
2019-03-02T09:53:40.613Z,17.23
2019-03-02T09:55:06.462Z,17.50
2019-03-02T09:56:32.124Z,17.60
2019-03-02T09:57:57.658Z,17.77
2019-03-02T09:59:23.195Z,17.20
2019-03-02T10:00:48.693Z,16.47
2019-03-02T10:02:15.583Z,19.27
2019-03-02T10:03:41.283Z,19.20
2019-03-02T10:05:07.113Z,19.03
2019-03-02T10:06:32.650Z,20.87
2019-03-02T10:07:58.243Z,19.10
2019-03-02T10:09:24.935Z,16.23
2019-03-02T10:10:50.719Z,15.57
2019-03-02T10:12:16.231Z,12.57
2019-03-02T10:13:41.758Z,12.40
2019-03-02T10:15:08.924Z,10.60
2019-03-02T10:16:34.526Z,11.93
2019-03-02T10:18:00.219Z,11.73
2019-03-02T10:19:28.982Z,12.00
2019-03-02T10:20:53.083Z,11.63
2019-03-02T10:22:19.761Z,11.30
2019-03-02T10:23:45.802Z,11.80
2019-03-02T10:25:11.722Z,10.53
2019-03-02T10:26:39.816Z,13.40
2019-03-02T10:28:05.031Z,11.90
2019-03-02T10:29:32.299Z,13.07
2019-03-02T10:30:57.878Z,12.20
2019-03-02T10:32:23.422Z,12.80
2019-03-02T10:33:48.926Z,12.03
2019-03-02T10:35:17.169Z,12.53
2019-03-02T10:36:42.514Z,12.70
2019-03-02T10:38:08.134Z,12.63
2019-03-02T10:39:33.742Z,12.40
2019-03-02T10:40:59.262Z,11.93
2019-03-02T10:42:24.760Z,11.90
2019-03-02T10:43:50.292Z,11.87
2019-03-02T10:45:17.492Z,12.13
2019-03-02T10:46:43.154Z,12.77
2019-03-02T10:48:08.770Z,13.13
2019-03-02T10:49:34.279Z,13.70
2019-03-02T10:51:02.306Z,12.13
2019-03-02T10:52:27.017Z,13.50
2019-03-02T10:53:55.814Z,13.90
2019-03-02T10:55:20.821Z,13.67
2019-03-02T10:56:46.322Z,13.40
2019-03-02T10:58:11.910Z,12.87
2019-03-02T10:59:37.453Z,12.63
2019-03-02T11:01:03.239Z,12.00
2019-03-02T11:02:30.161Z,13.40
2019-03-02T11:03:55.806Z,12.40
2019-03-02T11:05:43.020Z,13.10
2019-03-02T11:07:20.943Z,12.47
2019-03-02T11:09:22.538Z,13.50
2019-03-02T11:10:55.792Z,13.93
2019-03-02T11:12:35.237Z,13.10
2019-03-02T11:14:18.297Z,12.93
2019-03-02T11:16:20.711Z,15.37
2019-03-02T11:18:10.827Z,12.13
2019-03-02T11:19:53.799Z,11.90
2019-03-02T11:21:38.111Z,11.60
2019-03-02T11:23:15.700Z,11.97
2019-03-02T11:24:54.419Z,12.30
2019-03-02T11:26:28.115Z,11.47
2019-03-02T11:28:11.169Z,11.13
2019-03-02T11:29:56.089Z,10.27
2019-03-02T11:31:32.245Z,9.63
2019-03-02T11:33:15.016Z,11.43
2019-03-02T11:35:10.459Z,12.00
2019-03-02T11:37:09.284Z,9.90
2019-03-02T11:38:52.188Z,10.23
2019-03-02T11:40:54.612Z,10.43
2019-03-02T11:42:45.781Z,10.10
2019-03-02T11:44:19.084Z,10.57
2019-03-02T11:46:05.963Z,9.67
2019-03-02T11:47:48.719Z,11.57
2019-03-02T11:49:39.365Z,9.83
2019-03-02T11:51:18.278Z,10.80
2019-03-02T11:53:05.217Z,9.93
2019-03-02T11:55:00.962Z,9.40
2019-03-02T11:56:46.638Z,8.77
2019-03-02T11:58:36.894Z,8.30
2019-03-02T12:00:21.425Z,8.50
2019-03-02T12:02:04.515Z,9.67
2019-03-02T12:03:51.512Z,9.10
2019-03-02T12:05:34.288Z,8.37
2019-03-02T12:07:17.155Z,9.30
2019-03-02T12:09:04.014Z,8.30
2019-03-02T12:10:51.533Z,7.47
2019-03-02T12:12:38.669Z,8.43
2019-03-02T12:14:19.802Z,7.80
2019-03-02T12:16:09.916Z,7.40
2019-03-02T12:17:47.740Z,7.93
2019-03-02T12:19:40.832Z,8.40
2019-03-02T12:21:37.255Z,8.27
2019-03-02T12:23:39.510Z,7.50
2019-03-02T12:25:27.301Z,7.67
2019-03-02T12:27:10.238Z,7.10
2019-03-02T12:29:13.433Z,8.10
2019-03-02T12:30:55.797Z,7.90
2019-03-02T12:32:40.328Z,9.00
2019-03-02T12:34:19.181Z,8.37
2019-03-02T12:35:53.535Z,9.30
2019-03-02T12:37:43.744Z,8.87
2019-03-02T12:39:23.989Z,7.87
2019-03-02T12:41:15.722Z,10.73
2019-03-02T12:42:57.551Z,8.37
2019-03-02T12:44:41.892Z,7.80
2019-03-02T12:46:29.418Z,9.70
2019-03-02T12:48:11.591Z,7.03
2019-03-02T12:49:54.359Z,7.27
2019-03-02T12:51:29.086Z,6.37
2019-03-02T12:53:16.006Z,7.97
2019-03-02T12:54:59.116Z,8.53
2019-03-02T12:56:42.240Z,6.47
2019-03-02T12:58:25.471Z,9.77
2019-03-02T13:00:05.977Z,7.10
2019-03-02T13:01:53.093Z,6.30
2019-03-02T13:03:55.365Z,6.73
2019-03-02T13:05:38.315Z,7.40
2019-03-02T13:07:15.576Z,7.57
2019-03-02T13:08:49.293Z,8.03
2019-03-02T13:10:40.861Z,7.70
2019-03-02T13:12:18.280Z,7.73
2019-03-02T13:13:57.899Z,7.87
2019-03-02T13:15:42.139Z,7.83
2019-03-02T13:17:33.099Z,8.30
2019-03-02T13:19:26.747Z,6.80
2019-03-02T13:21:20.381Z,8.27
2019-03-02T13:23:06.698Z,7.57
2019-03-02T13:24:57.920Z,8.63
2019-03-02T13:26:40.746Z,7.20
2019-03-02T13:28:40.115Z,8.10
2019-03-02T13:30:13.938Z,8.03
2019-03-02T13:31:56.878Z,8.00
2019-03-02T13:33:41.854Z,8.10
2019-03-02T13:35:23.205Z,7.50
2019-03-02T13:37:21.291Z,6.90
2019-03-02T13:39:06.481Z,6.70
2019-03-02T13:40:52.737Z,6.80
2019-03-02T13:42:29.427Z,6.57
2019-03-02T13:44:15.922Z,5.87
2019-03-02T13:45:51.850Z,6.33
2019-03-02T13:47:35.257Z,6.87
2019-03-02T13:49:37.278Z,8.37
2019-03-02T13:51:30.017Z,6.10
2019-03-02T13:53:19.945Z,6.30
2019-03-02T13:55:06.102Z,6.20
2019-03-02T13:56:53.518Z,5.50
2019-03-02T13:58:40.986Z,6.03
2019-03-02T14:00:35.793Z,5.63
2019-03-02T14:02:18.554Z,6.17
2019-03-02T14:04:14.896Z,6.13
2019-03-02T14:06:04.987Z,4.73
2019-03-02T14:07:46.785Z,5.77
2019-03-02T14:09:22.822Z,5.60
2019-03-02T14:11:13.074Z,6.00
2019-03-02T14:13:00.389Z,5.30
2019-03-02T14:14:53.830Z,6.20
2019-03-02T14:16:37.856Z,5.87
2019-03-02T14:18:28.458Z,5.63
2019-03-02T14:20:09.808Z,5.20
2019-03-02T14:21:59.953Z,5.60
2019-03-02T14:23:35.642Z,5.70
2019-03-02T14:25:32.176Z,5.77
2019-03-02T14:27:22.581Z,5.47
2019-03-02T14:28:56.217Z,6.03
2019-03-02T14:30:46.686Z,5.47
2019-03-02T14:32:37.084Z,5.93
2019-03-02T14:34:20.645Z,5.73
2019-03-02T14:36:15.344Z,5.50
2019-03-02T14:37:59.781Z,5.93
2019-03-02T14:39:47.047Z,6.17
2019-03-02T14:41:24.550Z,6.00
2019-03-02T14:43:15.772Z,5.70
2019-03-02T14:44:59.689Z,4.73
2019-03-02T14:46:32.785Z,5.90
2019-03-02T14:48:17.214Z,5.87
2019-03-02T14:49:54.957Z,5.07
2019-03-02T14:51:42.298Z,5.40
2019-03-02T14:53:25.238Z,6.90
2019-03-02T14:54:57.951Z,5.37
2019-03-02T14:56:49.257Z,5.33
2019-03-02T14:58:34.095Z,6.20
2019-03-02T15:00:08.692Z,6.83
2019-03-02T15:01:53.130Z,6.23
2019-03-02T15:03:38.942Z,5.60
2019-03-02T15:05:29.247Z,5.03
2019-03-02T15:07:25.495Z,5.80
2019-03-02T15:09:13.372Z,4.57
2019-03-02T15:10:56.507Z,4.53
2019-03-02T15:12:43.618Z,6.17
2019-03-02T15:14:38.546Z,5.10
2019-03-02T15:16:20.225Z,5.67
2019-03-02T15:18:10.687Z,5.93
2019-03-02T15:19:56.196Z,6.27
2019-03-02T15:21:32.149Z,6.33
2019-03-02T15:23:19.310Z,5.73
2019-03-02T15:24:53.210Z,5.53
2019-03-02T15:26:31.309Z,5.93
2019-03-02T15:28:06.448Z,6.30
2019-03-02T15:29:50.382Z,5.80
2019-03-02T15:31:45.770Z,5.90
2019-03-02T15:33:37.955Z,7.00
2019-03-02T15:35:30.184Z,6.10
2019-03-02T15:37:13.940Z,5.07
2019-03-02T15:38:58.375Z,6.47
2019-03-02T15:41:01.195Z,7.00
2019-03-02T15:42:54.320Z,5.70
2019-03-02T15:44:32.914Z,6.53
2019-03-02T15:46:15.928Z,5.70
2019-03-02T15:47:54.583Z,5.00
2019-03-02T15:49:40.237Z,5.67
2019-03-02T15:51:21.661Z,5.13
2019-03-02T15:52:55.623Z,6.10
2019-03-02T15:54:39.909Z,6.40
2019-03-02T15:56:30.394Z,5.27
2019-03-02T15:58:05.694Z,6.73
2019-03-02T15:59:48.502Z,6.60
2019-03-02T16:01:27.298Z,6.70
2019-03-02T16:03:19.126Z,5.27
2019-03-02T16:04:50.532Z,6.03
2019-03-02T16:06:27.756Z,5.70
2019-03-02T16:08:10.613Z,6.17
2019-03-02T16:09:55.231Z,5.97
2019-03-02T16:11:42.746Z,7.07
2019-03-02T16:13:29.922Z,5.97
2019-03-02T16:15:23.418Z,5.27
2019-03-02T16:17:10.478Z,6.10
2019-03-02T16:18:54.807Z,5.90
2019-03-02T16:20:42.593Z,5.80
2019-03-02T16:22:18.533Z,5.50
2019-03-02T16:24:02.266Z,4.90
2019-03-02T16:25:52.455Z,6.30
2019-03-02T16:27:39.806Z,6.47
2019-03-02T16:29:44.203Z,5.83
2019-03-02T16:31:41.265Z,6.30
2019-03-02T16:33:38.118Z,5.80
2019-03-02T16:35:25.857Z,5.43
2019-03-02T16:37:01.363Z,5.53
2019-03-02T16:38:48.035Z,5.53
2019-03-02T16:40:31.049Z,5.90
2019-03-02T16:42:30.433Z,4.93
2019-03-02T16:44:13.546Z,5.60
2019-03-02T16:45:56.682Z,6.07
2019-03-02T16:47:30.477Z,5.57
2019-03-02T16:49:12.314Z,6.40
2019-03-02T16:51:05.542Z,6.10
2019-03-02T16:52:48.474Z,5.67
2019-03-02T16:54:33.364Z,6.33
2019-03-02T16:56:21.227Z,7.80
2019-03-02T16:58:13.981Z,6.67
2019-03-02T16:59:57.084Z,6.03
2019-03-02T17:01:41.523Z,5.80
2019-03-02T17:03:26.706Z,6.80
2019-03-02T17:05:07.449Z,6.10
2019-03-02T17:06:54.942Z,6.67
2019-03-02T17:08:48.419Z,6.40
2019-03-02T17:10:31.985Z,5.50
2019-03-02T17:12:19.374Z,7.93
2019-03-02T17:14:10.190Z,6.40
2019-03-02T17:15:55.061Z,5.47
2019-03-02T17:17:49.016Z,6.33
2019-03-02T17:19:24.465Z,6.20
2019-03-02T17:21:20.467Z,6.40
2019-03-02T17:23:05.391Z,7.03
2019-03-02T17:24:50.148Z,6.90
2019-03-02T17:26:31.836Z,5.73
2019-03-02T17:28:31.647Z,6.17
2019-03-02T17:30:17.643Z,6.17
2019-03-02T17:32:04.502Z,6.13
2019-03-02T17:34:03.599Z,5.90
2019-03-02T17:35:45.567Z,7.13
2019-03-02T17:37:32.744Z,5.97
2019-03-02T17:39:15.729Z,7.60
2019-03-02T17:40:54.405Z,7.50
2019-03-02T17:42:41.503Z,6.33
2019-03-02T17:44:28.846Z,6.30
2019-03-02T17:46:14.254Z,7.40
2019-03-02T17:47:53.811Z,6.20
2019-03-02T17:49:47.368Z,6.70
2019-03-02T17:51:40.519Z,6.40
2019-03-02T17:53:23.168Z,5.90
2019-03-02T17:55:04.605Z,7.60
2019-03-02T17:56:49.010Z,7.00
2019-03-02T17:58:42.247Z,7.87
2019-03-02T18:00:29.789Z,6.70
2019-03-02T18:02:20.439Z,7.00
2019-03-02T18:04:05.216Z,5.97
2019-03-02T18:05:57.188Z,6.30
2019-03-02T18:07:56.408Z,6.40
2019-03-02T18:09:41.516Z,7.30
2019-03-02T18:11:18.559Z,6.60
2019-03-02T18:13:14.238Z,7.27
2019-03-02T18:14:57.986Z,7.30
2019-03-02T18:16:41.295Z,6.97
2019-03-02T18:18:08.082Z,7.00
2019-03-02T18:19:33.541Z,6.03
2019-03-02T18:20:59.198Z,7.40
2019-03-02T18:22:24.814Z,6.13
2019-03-02T18:23:51.715Z,6.20
2019-03-02T18:25:17.354Z,6.37
2019-03-02T18:26:42.973Z,6.40
2019-03-02T18:28:14.070Z,6.33
2019-03-02T18:29:38.782Z,6.60
2019-03-02T18:31:04.256Z,7.17
2019-03-02T18:32:30.091Z,6.60
2019-03-02T18:34:04.082Z,6.27
2019-03-02T18:35:29.630Z,7.43
2019-03-02T18:36:57.926Z,6.60
2019-03-02T18:38:23.415Z,6.00
2019-03-02T18:39:48.892Z,6.30
2019-03-02T18:41:16.460Z,7.60
2019-03-02T18:42:41.702Z,6.00
2019-03-02T18:44:07.441Z,7.30
2019-03-02T18:45:35.857Z,6.57
2019-03-02T18:47:00.022Z,5.77
2019-03-02T18:48:47.255Z,6.50
2019-03-02T18:50:32.664Z,7.20
2019-03-02T18:52:22.971Z,6.50
2019-03-02T18:53:48.520Z,6.33
2019-03-02T18:55:14.129Z,6.30
2019-03-02T18:56:39.846Z,6.23
2019-03-02T18:58:07.339Z,6.27
2019-03-02T18:59:32.837Z,6.80
2019-03-02T19:00:58.875Z,6.30
2019-03-02T19:02:24.517Z,6.87
2019-03-02T19:03:50.290Z,7.53
2019-03-02T19:05:15.882Z,6.77
2019-03-02T19:06:41.408Z,6.87
2019-03-02T19:08:07.084Z,6.80
2019-03-02T19:09:33.394Z,6.40
2019-03-02T19:10:58.962Z,6.10
2019-03-02T19:12:27.970Z,7.33
2019-03-02T19:13:51.598Z,6.73
2019-03-02T19:15:17.250Z,6.57
2019-03-02T19:16:42.973Z,6.17
2019-03-02T19:18:08.787Z,6.80
2019-03-02T19:19:34.278Z,7.03
2019-03-02T19:20:59.821Z,6.43
2019-03-02T19:22:25.322Z,7.33
2019-03-02T19:23:50.797Z,6.43
2019-03-02T19:25:16.775Z,7.60
2019-03-02T19:26:42.395Z,7.40
2019-03-02T19:28:08.017Z,7.70
2019-03-02T19:29:33.579Z,8.20
2019-03-02T19:30:59.099Z,6.70
2019-03-02T19:32:24.618Z,7.33
2019-03-02T19:33:50.118Z,6.83
2019-03-02T19:35:15.981Z,6.77
2019-03-02T19:36:41.444Z,6.73
2019-03-02T19:38:07.002Z,6.03
2019-03-02T19:39:32.871Z,6.00
2019-03-02T19:40:58.637Z,5.53
2019-03-02T19:42:24.254Z,7.20
2019-03-02T19:43:49.755Z,7.10
2019-03-02T19:45:15.620Z,6.63
2019-03-02T19:46:41.362Z,6.73
2019-03-02T19:48:07.079Z,7.23
2019-03-02T19:49:32.943Z,8.30
2019-03-02T19:50:58.569Z,8.13
2019-03-02T19:52:24.134Z,8.30
2019-03-02T19:53:49.931Z,6.97
2019-03-02T19:55:15.976Z,5.77
2019-03-02T19:56:41.437Z,7.47
2019-03-02T19:58:07.026Z,9.47
2019-03-02T19:59:32.659Z,15.60
2019-03-02T20:00:58.302Z,14.00
2019-03-02T20:02:23.858Z,10.07
2019-03-02T20:03:49.379Z,13.63
2019-03-02T20:05:15.615Z,15.10
2019-03-02T20:06:41.130Z,12.13